Terminal Aerodrome Forecast
Issued by NWS

Home | Current Version | Previous Version | Text Only | Print | Product List | Glossary On
Versions: 1 2 3 4 5 6 7 8 9 10 11 12 13 14 15 16 17 18 19 20 21 22 23 24 25 26 27 28 29 30 31 32 33 34
599
FTUS45 KGJT 231733
TAFVEL
TAF
KVEL 231733Z 2318/2418 VRB03KT P6SM FEW120 SCT250
     FM232000 25015G25KT P6SM FEW110 SCT250
     FM240000 29015G25KT P6SM FEW120 FEW200
     FM240200 32013G21KT P6SM FEW120 FEW200
     FM240400 02011KT P6SM FEW120 FEW200
     FM241500 05015G23KT P6SM FEW060 FEW250=

USA.gov is the U.S. government's official web portal to all federal, state and local government web resources and services.